createdAt,value
2019-06-26T00:04:19.591Z,22.64
2019-06-26T00:14:26.599Z,22.47
2019-06-26T00:21:05.877Z,22.45
2019-06-26T00:27:44.529Z,22.23
2019-06-26T00:34:12.670Z,22.37
2019-06-26T00:40:38.265Z,21.90
2019-06-26T00:47:06.983Z,22.02
2019-06-26T00:53:33.168Z,22.12
2019-06-26T00:59:22.228Z,21.78
2019-06-26T01:07:19.580Z,21.74
2019-06-26T01:09:50.201Z,21.79
2019-06-26T01:12:20.922Z,21.85
2019-06-26T01:14:51.437Z,21.78
2019-06-26T01:17:22.034Z,21.62
2019-06-26T01:19:52.522Z,21.64
2019-06-26T01:22:23.126Z,21.71
2019-06-26T01:24:55.096Z,21.75
2019-06-26T01:27:25.700Z,21.55
2019-06-26T01:29:56.303Z,21.45
2019-06-26T01:32:26.863Z,21.48
2019-06-26T01:34:57.452Z,21.54
2019-06-26T01:37:27.998Z,21.44
2019-06-26T01:39:58.562Z,21.31
2019-06-26T01:42:29.133Z,21.33
2019-06-26T01:44:59.761Z,21.31
2019-06-26T01:47:30.384Z,21.30
2019-06-26T01:50:00.938Z,21.23
2019-06-26T01:52:31.508Z,21.24
2019-06-26T01:55:03.604Z,21.07
2019-06-26T01:57:36.385Z,21.21
2019-06-26T02:00:07.963Z,21.22
2019-06-26T02:02:38.606Z,21.16
2019-06-26T02:05:10.432Z,21.25
2019-06-26T02:07:40.994Z,21.11
2019-06-26T02:10:12.268Z,21.11
2019-06-26T02:12:42.872Z,21.03
2019-06-26T02:15:13.673Z,21.06
2019-06-26T02:17:44.324Z,20.95
2019-06-26T02:20:14.864Z,20.95
2019-06-26T02:22:45.464Z,21.04
2019-06-26T02:25:16.141Z,21.09
2019-06-26T02:27:46.746Z,21.07
2019-06-26T02:30:17.406Z,21.06
2019-06-26T02:32:47.984Z,21.01
2019-06-26T02:35:18.754Z,20.90
2019-06-26T02:37:49.303Z,20.72
2019-06-26T02:40:20.146Z,20.63
2019-06-26T02:42:50.722Z,20.70
2019-06-26T02:45:21.263Z,20.48
2019-06-26T02:47:51.840Z,20.43
2019-06-26T02:50:22.383Z,20.30
2019-06-26T02:52:53.019Z,20.30
2019-06-26T02:55:24.540Z,20.35
2019-06-26T02:57:55.106Z,20.18
2019-06-26T03:00:26.760Z,20.27
2019-06-26T03:02:57.310Z,20.42
2019-06-26T03:05:27.989Z,20.49
2019-06-26T03:07:58.547Z,20.54
2019-06-26T03:10:29.834Z,20.63
2019-06-26T03:13:00.500Z,20.69
2019-06-26T03:15:31.139Z,20.70
2019-06-26T03:18:01.767Z,20.75
2019-06-26T03:20:37.044Z,20.76
2019-06-26T03:23:07.637Z,20.77
2019-06-26T03:25:38.140Z,20.79
2019-06-26T03:28:08.929Z,20.82
2019-06-26T03:30:39.532Z,20.81
2019-06-26T03:33:10.098Z,20.82
2019-06-26T03:35:40.963Z,20.79
2019-06-26T03:38:11.912Z,20.81
2019-06-26T03:40:42.494Z,20.82
2019-06-26T03:43:13.132Z,20.81
2019-06-26T03:45:43.787Z,20.82
2019-06-26T03:48:14.514Z,20.82
2019-06-26T03:50:45.093Z,20.78
2019-06-26T03:53:15.724Z,20.77
2019-06-26T03:55:47.095Z,20.73
2019-06-26T03:58:17.820Z,20.76
2019-06-26T04:00:48.382Z,20.75
2019-06-26T04:03:18.957Z,20.78
2019-06-26T04:05:49.582Z,20.79
2019-06-26T04:08:20.129Z,20.75
2019-06-26T04:10:50.693Z,20.71
2019-06-26T04:13:21.474Z,20.72
2019-06-26T04:15:51.985Z,20.72
2019-06-26T04:18:22.488Z,20.74
2019-06-26T04:20:53.085Z,20.74
2019-06-26T04:23:23.642Z,20.76
2019-06-26T04:25:54.225Z,20.77
2019-06-26T04:28:24.798Z,20.75
2019-06-26T04:30:55.348Z,20.68
2019-06-26T04:33:25.927Z,20.75
2019-06-26T04:35:56.489Z,20.79
2019-06-26T04:38:27.053Z,20.79
2019-06-26T04:40:59.593Z,20.80
2019-06-26T04:43:30.154Z,20.86
2019-06-26T04:46:01.386Z,20.88
2019-06-26T04:48:31.957Z,20.91
2019-06-26T04:51:02.491Z,20.96
2019-06-26T04:53:33.229Z,20.99
2019-06-26T04:56:03.829Z,21.04
2019-06-26T04:58:34.473Z,21.07
2019-06-26T05:01:05.139Z,21.09
2019-06-26T05:03:35.682Z,21.08
2019-06-26T05:06:07.260Z,21.09
2019-06-26T05:08:37.906Z,21.12
2019-06-26T05:11:08.478Z,21.13
2019-06-26T05:13:39.091Z,21.14
2019-06-26T05:16:15.021Z,21.23
2019-06-26T05:18:42.097Z,21.30
2019-06-26T05:21:13.343Z,21.32
2019-06-26T05:23:43.938Z,21.39
2019-06-26T05:26:16.425Z,21.45
2019-06-26T05:28:46.969Z,21.45
2019-06-26T05:31:18.336Z,21.49
2019-06-26T05:33:48.858Z,21.55
2019-06-26T05:36:19.438Z,21.59
2019-06-26T05:38:50.131Z,21.63
2019-06-26T05:41:20.830Z,21.66
2019-06-26T05:43:51.413Z,21.72
2019-06-26T05:46:30.916Z,21.80
2019-06-26T05:48:54.358Z,21.85
2019-06-26T05:51:24.954Z,21.91
2019-06-26T05:53:55.479Z,21.96
2019-06-26T05:56:26.081Z,22.01
2019-06-26T05:58:56.645Z,22.07
2019-06-26T06:01:27.286Z,22.11
2019-06-26T06:03:57.815Z,22.17
2019-06-26T06:06:40.988Z,22.22
2019-06-26T06:09:00.685Z,22.28
2019-06-26T06:11:31.312Z,22.34
2019-06-26T06:14:04.846Z,22.41
2019-06-26T06:16:46.772Z,22.48
2019-06-26T06:19:07.776Z,22.53
2019-06-26T06:21:38.358Z,22.62
2019-06-26T06:24:09.005Z,22.67
2019-06-26T06:26:39.600Z,22.71
2019-06-26T06:29:10.168Z,22.77
2019-06-26T06:31:40.691Z,22.84
2019-06-26T06:34:11.259Z,22.91
2019-06-26T06:36:41.842Z,22.98
2019-06-26T06:39:12.406Z,23.04
2019-06-26T06:41:43.526Z,23.10
2019-06-26T06:44:14.232Z,23.15
2019-06-26T06:46:44.820Z,23.21
2019-06-26T06:49:15.353Z,23.29
2019-06-26T06:51:45.943Z,23.35
2019-06-26T06:54:16.542Z,23.43
2019-06-26T06:56:47.067Z,23.48
2019-06-26T06:59:17.839Z,23.55
2019-06-26T07:01:48.774Z,23.62
2019-06-26T07:04:19.397Z,23.70
2019-06-26T07:06:50.035Z,23.76
2019-06-26T07:09:20.968Z,23.85
2019-06-26T07:11:52.148Z,23.92
2019-06-26T07:14:27.132Z,23.99
2019-06-26T07:17:01.441Z,24.06
2019-06-26T07:19:39.390Z,24.14
2019-06-26T07:22:20.564Z,24.21
2019-06-26T07:24:51.425Z,24.29
2019-06-26T07:27:22.060Z,24.36
2019-06-26T07:29:52.705Z,24.44
2019-06-26T07:32:23.309Z,24.53
2019-06-26T07:34:53.900Z,24.61
2019-06-26T07:37:25.648Z,24.72
2019-06-26T07:40:01.366Z,24.78
2019-06-26T07:42:28.502Z,24.86
2019-06-26T07:44:59.149Z,24.95
2019-06-26T07:47:42.594Z,25.02
2019-06-26T07:50:02.200Z,25.14
2019-06-26T07:52:32.859Z,25.26
2019-06-26T07:55:03.518Z,25.35
2019-06-26T07:57:34.061Z,25.45
2019-06-26T08:00:04.815Z,25.61
2019-06-26T08:02:35.437Z,25.67
2019-06-26T08:05:06.902Z,25.77
2019-06-26T08:07:37.463Z,25.86
2019-06-26T08:10:09.586Z,25.95
2019-06-26T08:12:40.187Z,26.03
2019-06-26T08:15:11.068Z,26.12
2019-06-26T08:17:55.946Z,26.16
2019-06-26T10:09:23.436Z,27.85
2019-06-26T10:11:54.075Z,27.60
2019-06-26T10:14:24.596Z,27.43
2019-06-26T10:16:55.204Z,27.48
2019-06-26T10:19:25.774Z,27.66
2019-06-26T10:21:56.581Z,27.75
2019-06-26T10:24:27.216Z,28.00
2019-06-26T10:26:57.948Z,28.21
2019-06-26T10:29:28.521Z,28.41
2019-06-26T10:31:59.172Z,28.49
2019-06-26T10:34:29.772Z,28.58
2019-06-26T10:37:00.476Z,28.70
2019-06-26T10:39:31.043Z,28.79
2019-06-26T10:42:01.588Z,28.95
2019-06-26T10:44:32.376Z,29.03
2019-06-26T10:47:10.676Z,29.26
2019-06-26T10:49:41.499Z,29.40
2019-06-26T10:52:13.272Z,29.42
2019-06-26T10:54:44.576Z,29.54
2019-06-26T10:57:15.396Z,29.54
2019-06-26T10:59:45.974Z,29.62
2019-06-26T11:02:17.074Z,29.65
2019-06-26T11:04:47.985Z,29.71
2019-06-26T11:07:18.543Z,29.74
2019-06-26T11:09:49.211Z,29.81
2019-06-26T11:12:19.810Z,29.82
2019-06-26T11:14:50.446Z,29.83
2019-06-26T11:17:21.062Z,29.86
2019-06-26T11:19:55.152Z,29.91
2019-06-26T11:22:23.999Z,29.95
2019-06-26T11:24:54.514Z,30.01
2019-06-26T11:27:25.083Z,30.08
2019-06-26T11:29:55.656Z,30.23
2019-06-26T11:32:26.255Z,30.37
2019-06-26T11:34:56.845Z,30.45
2019-06-26T11:37:27.391Z,30.52
2019-06-26T11:39:58.019Z,30.66
2019-06-26T11:42:32.477Z,30.80
2019-06-26T11:45:00.900Z,30.88
2019-06-26T11:47:31.529Z,31.01
2019-06-26T11:50:02.023Z,30.98
2019-06-26T11:52:32.672Z,30.99
2019-06-26T11:55:04.001Z,31.01
2019-06-26T11:57:34.835Z,31.03
2019-06-26T12:00:08.410Z,31.06
2019-06-26T12:02:38.957Z,31.12
2019-06-26T12:05:10.279Z,31.18
2019-06-26T12:07:40.945Z,31.38
2019-06-26T12:10:12.000Z,31.44
2019-06-26T12:12:42.589Z,31.53
2019-06-26T12:15:14.107Z,31.53
2019-06-26T12:17:44.647Z,31.58
2019-06-26T12:20:19.208Z,31.74
2019-06-26T12:22:48.663Z,31.78
2019-06-26T12:25:19.364Z,31.78
2019-06-26T12:27:49.922Z,31.80
2019-06-26T12:30:21.310Z,31.83
2019-06-26T12:33:02.895Z,31.85
2019-06-26T12:35:24.245Z,31.87
2019-06-26T12:37:54.807Z,31.88
2019-06-26T12:40:25.638Z,31.88
2019-06-26T12:42:56.263Z,31.89
2019-06-26T12:45:26.870Z,31.90
2019-06-26T12:47:57.509Z,31.97
2019-06-26T12:50:35.353Z,32.09
2019-06-26T12:53:02.844Z,32.08
2019-06-26T12:55:33.383Z,32.17
2019-06-26T12:58:13.014Z,32.31
2019-06-26T13:00:36.276Z,32.39
2019-06-26T13:03:07.032Z,32.44
2019-06-26T13:05:37.580Z,32.53
2019-06-26T13:08:08.383Z,32.64
2019-06-26T13:10:49.102Z,32.76
2019-06-26T13:13:11.455Z,32.90
2019-06-26T13:15:42.032Z,32.98
2019-06-26T13:18:12.608Z,32.96
2019-06-26T13:20:52.623Z,33.11
2019-06-26T13:23:15.732Z,33.12
2019-06-26T13:25:48.768Z,33.08
2019-06-26T13:28:19.381Z,33.13
2019-06-26T13:30:53.053Z,33.18
2019-06-26T13:33:22.259Z,33.22
2019-06-26T13:35:52.836Z,33.22
2019-06-26T13:38:26.996Z,33.33
2019-06-26T13:40:55.780Z,33.42
2019-06-26T13:43:27.738Z,33.47
2019-06-26T13:45:58.938Z,33.55
2019-06-26T13:48:29.648Z,33.57
2019-06-26T13:51:09.281Z,33.61
2019-06-26T13:53:34.097Z,33.64
2019-06-26T13:56:11.110Z,33.70
2019-06-26T13:58:42.990Z,33.77
2019-06-26T14:01:13.562Z,33.84
2019-06-26T14:03:44.253Z,33.88
2019-06-26T14:06:15.042Z,33.95
2019-06-26T14:08:45.635Z,34.02
2019-06-26T14:11:16.256Z,34.05
2019-06-26T14:13:46.917Z,34.10
2019-06-26T14:16:17.758Z,34.17
2019-06-26T14:18:49.486Z,34.27
2019-06-26T14:21:25.592Z,34.37
2019-06-26T14:23:52.778Z,34.61
2019-06-26T14:26:23.482Z,34.66
2019-06-26T14:28:56.850Z,34.68
2019-06-26T14:31:27.723Z,34.77
2019-06-26T14:33:58.545Z,34.84
2019-06-26T14:36:29.612Z,34.91
2019-06-26T14:39:00.240Z,35.03
2019-06-26T14:41:30.920Z,35.11
2019-06-26T14:44:01.953Z,35.21
2019-06-26T14:46:32.984Z,35.30
2019-06-26T14:49:03.632Z,35.43
2019-06-26T14:51:43.867Z,35.61
2019-06-26T14:54:07.183Z,35.77
2019-06-26T14:56:37.947Z,35.77
2019-06-26T14:59:08.684Z,35.82
2019-06-26T15:01:40.363Z,35.90
2019-06-26T15:04:13.426Z,35.97
2019-06-26T15:06:44.127Z,36.05
2019-06-26T15:09:14.746Z,36.16
2019-06-26T15:11:45.429Z,36.31
2019-06-26T15:14:16.083Z,36.54
2019-06-26T15:16:46.843Z,36.64
2019-06-26T15:19:17.397Z,36.67
2019-06-26T15:21:57.776Z,36.72
2019-06-26T15:24:20.558Z,36.78
2019-06-26T15:26:51.161Z,36.95
2019-06-26T15:29:21.723Z,36.98
2019-06-26T15:31:52.382Z,37.03
2019-06-26T15:34:26.147Z,36.98
2019-06-26T15:36:55.330Z,37.10
2019-06-26T15:39:25.898Z,37.21
2019-06-26T15:41:56.541Z,37.26
2019-06-26T15:44:27.269Z,37.36
2019-06-26T15:46:57.994Z,37.43
2019-06-26T15:49:28.565Z,37.53
2019-06-26T15:52:14.176Z,37.56
2019-06-26T15:54:31.465Z,37.57
2019-06-26T15:57:02.084Z,37.66
2019-06-26T15:59:32.750Z,37.66
2019-06-26T16:02:03.408Z,37.71
2019-06-26T16:04:35.183Z,37.67
2019-06-26T16:07:06.031Z,37.62
2019-06-26T16:09:36.671Z,37.58
2019-06-26T16:12:07.276Z,37.56
2019-06-26T16:14:38.806Z,37.52
2019-06-26T16:17:16.364Z,37.54
2019-06-26T16:19:46.938Z,37.54
2019-06-26T16:22:31.254Z,37.50
2019-06-26T16:24:50.084Z,37.48
2019-06-26T16:27:20.686Z,37.43
2019-06-26T16:29:52.329Z,37.41
2019-06-26T16:32:23.088Z,37.42
2019-06-26T16:34:55.113Z,37.40
2019-06-26T16:37:25.689Z,37.42
2019-06-26T16:40:00.586Z,37.45
2019-06-26T16:42:31.224Z,37.51
2019-06-26T16:45:06.997Z,37.53
2019-06-26T16:47:37.603Z,37.52
2019-06-26T16:50:09.265Z,37.58
2019-06-26T16:52:49.018Z,37.70
2019-06-26T16:55:12.319Z,37.69
2019-06-26T16:57:42.974Z,37.74
2019-06-26T17:00:15.562Z,37.84
2019-06-26T17:02:46.288Z,37.86
2019-06-26T17:05:17.369Z,37.87
2019-06-26T17:07:48.133Z,38.04
2019-06-26T17:10:20.372Z,38.18
2019-06-26T17:12:50.976Z,38.07
2019-06-26T17:15:21.626Z,38.07
2019-06-26T17:17:52.246Z,37.99
2019-06-26T17:20:23.912Z,37.96
2019-06-26T17:23:05.175Z,37.89
2019-06-26T17:25:27.860Z,37.87
2019-06-26T17:27:58.482Z,37.79
2019-06-26T17:30:29.080Z,37.84
2019-06-26T17:32:59.690Z,37.70
2019-06-26T17:35:30.252Z,37.47
2019-06-26T17:38:00.885Z,37.27
2019-06-26T17:40:31.446Z,37.00
2019-06-26T17:43:11.773Z,36.76
2019-06-26T17:45:34.591Z,36.52
2019-06-26T17:48:05.348Z,36.38
2019-06-26T17:50:36.069Z,36.09
2019-06-26T17:53:20.635Z,35.98
2019-06-26T17:55:39.702Z,35.90
2019-06-26T17:58:10.646Z,35.80
2019-06-26T18:00:41.572Z,35.57
2019-06-26T18:03:16.670Z,35.42
2019-06-26T18:05:52.587Z,35.11
2019-06-26T18:08:24.300Z,35.01
2019-06-26T18:10:54.887Z,34.93
2019-06-26T18:13:28.317Z,34.82
2019-06-26T18:15:58.957Z,34.70
2019-06-26T18:18:29.556Z,34.53
2019-06-26T18:21:00.118Z,34.45
2019-06-26T18:23:38.008Z,34.39
2019-06-26T18:26:13.019Z,34.33
2019-06-26T18:28:35.529Z,34.21
2019-06-26T18:31:09.104Z,34.16
2019-06-26T18:33:39.704Z,34.06
2019-06-26T18:36:10.404Z,33.94
2019-06-26T18:38:40.994Z,33.87
2019-06-26T18:41:11.576Z,33.76
2019-06-26T18:43:42.214Z,33.67
2019-06-26T18:46:13.078Z,33.54
2019-06-26T18:48:43.718Z,33.48
2019-06-26T18:51:14.430Z,33.37
2019-06-26T18:53:53.451Z,33.33
2019-06-26T18:56:17.824Z,33.21
2019-06-26T18:58:48.459Z,33.14
2019-06-26T19:01:19.036Z,33.05
2019-06-26T19:03:49.601Z,32.98
2019-06-26T19:06:20.308Z,32.81
2019-06-26T19:08:50.889Z,32.72
2019-06-26T19:11:22.919Z,32.58
2019-06-26T19:13:54.842Z,32.42
2019-06-26T19:16:25.511Z,32.34
2019-06-26T19:18:56.137Z,32.26
2019-06-26T19:21:27.029Z,32.15
2019-06-26T19:24:09.533Z,32.10
2019-06-26T19:26:30.031Z,31.94
2019-06-26T19:29:00.618Z,31.72
2019-06-26T19:31:31.191Z,31.70
2019-06-26T19:34:01.795Z,31.68
2019-06-26T19:36:45.861Z,31.45
2019-06-26T19:39:07.075Z,31.36
2019-06-26T19:41:37.760Z,31.39
2019-06-26T19:44:09.159Z,31.23
2019-06-26T19:46:41.991Z,31.12
2019-06-26T19:49:12.855Z,31.04
2019-06-26T19:51:43.560Z,30.97
2019-06-26T19:54:26.418Z,30.93
2019-06-26T19:56:46.507Z,30.84
2019-06-26T19:59:17.177Z,30.78
2019-06-26T20:01:51.276Z,30.71
2019-06-26T20:04:20.405Z,30.61
2019-06-26T20:06:51.704Z,30.62
2019-06-26T20:09:22.328Z,30.53
2019-06-26T20:11:52.902Z,30.44
2019-06-26T20:14:23.528Z,30.38
2019-06-26T20:16:54.194Z,30.35
2019-06-26T20:19:24.837Z,30.26
2019-06-26T20:21:55.457Z,30.19
2019-06-26T20:24:42.562Z,30.15
2019-06-26T20:26:58.422Z,30.12
2019-06-26T20:29:28.996Z,30.08
2019-06-26T20:31:59.595Z,30.02
2019-06-26T20:34:31.265Z,29.93
2019-06-26T20:37:01.831Z,29.85
2019-06-26T20:39:32.407Z,29.80
2019-06-26T20:42:03.291Z,29.72
2019-06-26T20:44:33.953Z,29.65
2019-06-26T20:47:04.646Z,29.55
2019-06-26T20:49:35.224Z,29.51
2019-06-26T20:52:05.781Z,29.54
2019-06-26T20:54:36.395Z,29.46
2019-06-26T20:57:07.618Z,29.45
2019-06-26T20:59:38.264Z,29.32
2019-06-26T21:02:08.791Z,29.23
2019-06-26T21:04:39.466Z,29.16
2019-06-26T21:07:10.070Z,29.18
2019-06-26T21:09:40.609Z,29.01
2019-06-26T21:12:11.505Z,29.04
2019-06-26T21:14:42.341Z,29.02
2019-06-26T21:17:12.968Z,28.97
2019-06-26T21:19:43.568Z,28.87
2019-06-26T21:22:14.199Z,28.85
2019-06-26T21:24:44.759Z,28.78
2019-06-26T21:27:15.672Z,28.78
2019-06-26T21:29:46.652Z,28.77
2019-06-26T21:32:18.030Z,28.77
2019-06-26T21:34:49.043Z,28.67
2019-06-26T21:37:20.177Z,28.59
2019-06-26T21:39:51.193Z,28.58
2019-06-26T21:42:22.136Z,28.54
2019-06-26T21:44:54.089Z,28.53
2019-06-26T21:47:24.747Z,28.46
2019-06-26T21:49:56.170Z,28.44
2019-06-26T21:52:28.822Z,28.48
2019-06-26T21:54:59.427Z,28.43
2019-06-26T21:57:30.187Z,28.35
2019-06-26T22:00:03.288Z,28.30
2019-06-26T22:02:36.592Z,28.29
2019-06-26T22:05:08.848Z,28.29
2019-06-26T22:07:39.387Z,28.26
2019-06-26T22:10:11.969Z,28.24
2019-06-26T22:12:42.507Z,28.22
2019-06-26T22:15:15.043Z,28.18
2019-06-26T22:17:45.707Z,28.16
2019-06-26T22:20:18.029Z,28.10
2019-06-26T22:22:48.707Z,28.06
2019-06-26T22:25:20.283Z,28.03
2019-06-26T22:27:50.893Z,28.06
2019-06-26T22:30:22.004Z,28.04
2019-06-26T22:32:52.585Z,28.01
2019-06-26T22:35:23.255Z,27.88
2019-06-26T22:37:53.795Z,27.88
2019-06-26T22:40:24.338Z,27.81
2019-06-26T22:42:55.951Z,27.83
2019-06-26T22:45:26.538Z,27.77
2019-06-26T22:47:57.232Z,27.75
2019-06-26T22:50:27.768Z,27.64
2019-06-26T22:52:58.389Z,27.69
2019-06-26T22:55:29.936Z,27.66
2019-06-26T22:58:00.560Z,27.60
2019-06-26T23:00:31.158Z,27.59
2019-06-26T23:03:01.741Z,27.57
2019-06-26T23:05:38.169Z,27.49
2019-06-26T23:08:08.720Z,27.45
2019-06-26T23:10:39.325Z,27.40
2019-06-26T23:13:09.940Z,27.38
2019-06-26T23:15:40.444Z,27.31
2019-06-26T23:18:11.069Z,27.30
2019-06-26T23:20:42.208Z,27.26
2019-06-26T23:23:12.836Z,27.18
2019-06-26T23:25:43.456Z,27.19
2019-06-26T23:28:13.990Z,27.12
2019-06-26T23:30:44.601Z,27.10
2019-06-26T23:33:15.137Z,27.08
2019-06-26T23:35:45.974Z,27.03
2019-06-26T23:38:16.512Z,26.92
2019-06-26T23:40:47.063Z,26.92
2019-06-26T23:43:17.661Z,26.89
2019-06-26T23:45:48.257Z,26.84
2019-06-26T23:48:18.868Z,26.77
2019-06-26T23:50:49.436Z,26.67
2019-06-26T23:53:19.993Z,26.59
2019-06-26T23:55:50.567Z,26.51
2019-06-26T23:58:21.175Z,26.45
